sensor_id;sensor_type;location;lat;lon;timestamp;pressure;altitude;pressure_sealevel;temperature;humidity
59104;BME280;51449;51.676;5.812;2023-04-25T00:01:03;100991.00;;;6.85;76.51
59104;BME280;51449;51.676;5.812;2023-04-25T00:03:26;100993.47;;;6.86;75.84
59104;BME280;51449;51.676;5.812;2023-04-25T00:05:48;100999.44;;;6.89;76.54
59104;BME280;51449;51.676;5.812;2023-04-25T00:08:10;100999.44;;;6.89;76.18
59104;BME280;51449;51.676;5.812;2023-04-25T00:10:32;101013.16;;;6.89;75.98
59104;BME280;51449;51.676;5.812;2023-04-25T00:12:54;100998.66;;;6.88;75.42
59104;BME280;51449;51.676;5.812;2023-04-25T00:15:16;101000.53;;;6.88;75.81
59104;BME280;51449;51.676;5.812;2023-04-25T00:17:37;101003.91;;;6.84;75.34
59104;BME280;51449;51.676;5.812;2023-04-25T00:20:02;101009.38;;;6.84;75.46
59104;BME280;51449;51.676;5.812;2023-04-25T00:22:26;101017.09;;;6.82;76.01
59104;BME280;51449;51.676;5.812;2023-04-25T00:24:48;101013.88;;;6.80;75.67
59104;BME280;51449;51.676;5.812;2023-04-25T00:27:09;101013.34;;;6.78;76.02
59104;BME280;51449;51.676;5.812;2023-04-25T00:29:31;101007.34;;;6.76;76.14
59104;BME280;51449;51.676;5.812;2023-04-25T00:31:53;101022.16;;;6.75;75.67
59104;BME280;51449;51.676;5.812;2023-04-25T00:34:15;101022.16;;;6.75;76.40
59104;BME280;51449;51.676;5.812;2023-04-25T00:36:36;101026.00;;;6.74;76.68
59104;BME280;51449;51.676;5.812;2023-04-25T00:38:58;101023.78;;;6.76;76.43
59104;BME280;51449;51.676;5.812;2023-04-25T00:41:20;101021.06;;;6.76;76.92
59104;BME280;51449;51.676;5.812;2023-04-25T00:43:43;101019.63;;;6.79;76.69
59104;BME280;51449;51.676;5.812;2023-04-25T00:46:07;101015.75;;;6.80;76.63
59104;BME280;51449;51.676;5.812;2023-04-25T00:48:29;101017.09;;;6.82;76.82
59104;BME280;51449;51.676;5.812;2023-04-25T00:50:57;101016.28;;;6.82;77.51
59104;BME280;51449;51.676;5.812;2023-04-25T00:53:27;101017.09;;;6.82;77.43
59104;BME280;51449;51.676;5.812;2023-04-25T00:55:51;101018.72;;;6.83;77.57
59104;BME280;51449;51.676;5.812;2023-04-25T00:58:13;101020.34;;;6.84;76.97
59104;BME280;51449;51.676;5.812;2023-04-25T01:00:36;101021.66;;;6.87;77.60
59104;BME280;51449;51.676;5.812;2023-04-25T01:02:58;101027.44;;;6.85;77.85
59104;BME280;51449;51.676;5.812;2023-04-25T01:05:22;101017.31;;;6.86;77.81
59104;BME280;51449;51.676;5.812;2023-04-25T01:07:44;101019.72;;;6.88;77.75
59104;BME280;51449;51.676;5.812;2023-04-25T01:10:07;101011.81;;;6.86;77.82
59104;BME280;51449;51.676;5.812;2023-04-25T01:12:31;101017.81;;;6.88;77.82
59104;BME280;51449;51.676;5.812;2023-04-25T01:14:53;101017.31;;;6.86;77.68
59104;BME280;51449;51.676;5.812;2023-04-25T01:17:15;101018.72;;;6.83;78.36
59104;BME280;51449;51.676;5.812;2023-04-25T01:19:39;101031.59;;;6.83;78.48
59104;BME280;51449;51.676;5.812;2023-04-25T01:22:01;101021.75;;;6.82;77.91
59104;BME280;51449;51.676;5.812;2023-04-25T01:24:24;101024.19;;;6.83;77.64
59104;BME280;51449;51.676;5.812;2023-04-25T01:26:48;101016.78;;;6.84;77.19
59104;BME280;51449;51.676;5.812;2023-04-25T01:29:17;101028.56;;;6.84;77.65
59104;BME280;51449;51.676;5.812;2023-04-25T01:31:40;101024.81;;;6.80;77.55
59104;BME280;51449;51.676;5.812;2023-04-25T01:34:03;101040.22;;;6.76;77.59
59104;BME280;51449;51.676;5.812;2023-04-25T01:36:24;101034.03;;;6.71;77.69
59104;BME280;51449;51.676;5.812;2023-04-25T01:38:46;101034.63;;;6.68;77.29
59104;BME280;51449;51.676;5.812;2023-04-25T01:41:09;101032.19;;;6.66;77.73
59104;BME280;51449;51.676;5.812;2023-04-25T01:43:32;101045.38;;;6.64;77.68
59104;BME280;51449;51.676;5.812;2023-04-25T01:45:55;101042.13;;;6.62;77.54
59104;BME280;51449;51.676;5.812;2023-04-25T01:48:19;101047.88;;;6.60;77.08
59104;BME280;51449;51.676;5.812;2023-04-25T01:50:41;101051.22;;;6.57;77.64
59104;BME280;51449;51.676;5.812;2023-04-25T01:53:09;101046.88;;;6.56;77.90
59104;BME280;51449;51.676;5.812;2023-04-25T01:55:35;101058.41;;;6.53;77.41
59104;BME280;51449;51.676;5.812;2023-04-25T01:58:02;101046.97;;;6.51;77.97
59104;BME280;51449;51.676;5.812;2023-04-25T02:00:44;101050.28;;;6.48;77.82
59104;BME280;51449;51.676;5.812;2023-04-25T02:03:06;101059.34;;;6.49;78.08
59104;BME280;51449;51.676;5.812;2023-04-25T02:05:34;101062.88;;;6.49;78.47
59104;BME280;51449;51.676;5.812;2023-04-25T02:08:00;101066.44;;;6.50;78.06
59104;BME280;51449;51.676;5.812;2023-04-25T02:10:21;101061.75;;;6.50;77.96
59104;BME280;51449;51.676;5.812;2023-04-25T02:12:49;101067.56;;;6.49;77.43
59104;BME280;51449;51.676;5.812;2023-04-25T02:15:29;101059.03;;;6.50;77.70
59104;BME280;51449;51.676;5.812;2023-04-25T02:18:03;101062.88;;;6.49;78.00
59104;BME280;51449;51.676;5.812;2023-04-25T02:20:26;101059.34;;;6.49;77.63
59104;BME280;51449;51.676;5.812;2023-04-25T02:22:51;101055.47;;;6.50;77.76
59104;BME280;51449;51.676;5.812;2023-04-25T02:25:14;101064.31;;;6.47;77.35
59104;BME280;51449;51.676;5.812;2023-04-25T02:27:37;101065.41;;;6.46;77.42
59104;BME280;51449;51.676;5.812;2023-04-25T02:29:59;101067.13;;;6.41;77.78
59104;BME280;51449;51.676;5.812;2023-04-25T02:32:21;101068.81;;;6.37;77.61
59104;BME280;51449;51.676;5.812;2023-04-25T02:34:43;101067.78;;;6.33;77.76
59104;BME280;51449;51.676;5.812;2023-04-25T02:37:04;101070.00;;;6.31;77.97
59104;BME280;51449;51.676;5.812;2023-04-25T02:39:26;101072.53;;;6.28;77.62
59104;BME280;51449;51.676;5.812;2023-04-25T02:41:49;101076.38;;;6.27;78.12
59104;BME280;51449;51.676;5.812;2023-04-25T02:44:11;101070.09;;;6.26;77.32
59104;BME280;51449;51.676;5.812;2023-04-25T02:46:33;101074.56;;;6.22;77.65
59104;BME280;51449;51.676;5.812;2023-04-25T02:49:00;101071.31;;;6.20;77.76
59104;BME280;51449;51.676;5.812;2023-04-25T02:51:22;101079.28;;;6.16;77.84
59104;BME280;51449;51.676;5.812;2023-04-25T02:53:44;101080.16;;;6.12;77.73
59104;BME280;51449;51.676;5.812;2023-04-25T02:56:06;101076.09;;;6.09;77.71
59104;BME280;51449;51.676;5.812;2023-04-25T02:58:28;101079.44;;;6.06;78.15
59104;BME280;51449;51.676;5.812;2023-04-25T03:00:50;101071.03;;;6.03;78.12
59104;BME280;51449;51.676;5.812;2023-04-25T03:03:12;101075.19;;;6.00;77.89
59104;BME280;51449;51.676;5.812;2023-04-25T03:05:34;101073.31;;;5.95;77.90
59104;BME280;51449;51.676;5.812;2023-04-25T03:07:55;101071.44;;;5.91;78.30
59104;BME280;51449;51.676;5.812;2023-04-25T03:10:17;101076.41;;;5.89;78.29
59104;BME280;51449;51.676;5.812;2023-04-25T03:12:39;101083.00;;;5.88;78.34
59104;BME280;51449;51.676;5.812;2023-04-25T03:15:01;101083.28;;;5.86;77.89
59104;BME280;51449;51.676;5.812;2023-04-25T03:17:24;101080.00;;;5.84;78.21
59104;BME280;51449;51.676;5.812;2023-04-25T03:19:45;101086.28;;;5.85;77.90
59104;BME280;51449;51.676;5.812;2023-04-25T03:22:07;101083.88;;;5.83;78.22
59104;BME280;51449;51.676;5.812;2023-04-25T03:24:29;101082.53;;;5.81;77.85
59104;BME280;51449;51.676;5.812;2023-04-25T03:26:52;101086.88;;;5.82;77.80
59104;BME280;51449;51.676;5.812;2023-04-25T03:29:14;101083.63;;;5.79;77.74
59104;BME280;51449;51.676;5.812;2023-04-25T03:31:37;101092.44;;;5.76;77.79
59104;BME280;51449;51.676;5.812;2023-04-25T03:33:59;101084.00;;;5.73;77.91
59104;BME280;51449;51.676;5.812;2023-04-25T03:36:21;101085.91;;;5.72;77.69
59104;BME280;51449;51.676;5.812;2023-04-25T03:38:42;101089.44;;;5.73;78.04
59104;BME280;51449;51.676;5.812;2023-04-25T03:41:07;101081.56;;;5.71;77.95
59104;BME280;51449;51.676;5.812;2023-04-25T03:43:36;101085.38;;;5.70;77.54
59104;BME280;51449;51.676;5.812;2023-04-25T03:46:03;101096.31;;;5.70;78.15
59104;BME280;51449;51.676;5.812;2023-04-25T03:48:25;101089.25;;;5.69;78.31
59104;BME280;51449;51.676;5.812;2023-04-25T03:50:48;101096.63;;;5.69;77.44
59104;BME280;51449;51.676;5.812;2023-04-25T03:53:10;101090.06;;;5.70;77.92
59104;BME280;51449;51.676;5.812;2023-04-25T03:56:00;101092.78;;;5.70;78.12
59104;BME280;51449;51.676;5.812;2023-04-25T03:58:26;101093.31;;;5.72;78.11
59104;BME280;51449;51.676;5.812;2023-04-25T04:00:47;101092.72;;;5.75;77.91
59104;BME280;51449;51.676;5.812;2023-04-25T04:03:09;101092.72;;;5.75;77.88
59104;BME280;51449;51.676;5.812;2023-04-25T04:05:32;101092.72;;;5.75;77.58
59104;BME280;51449;51.676;5.812;2023-04-25T04:07:55;101105.28;;;5.76;77.25
59104;BME280;51449;51.676;5.812;2023-04-25T04:10:17;101088.06;;;5.75;77.75
59104;BME280;51449;51.676;5.812;2023-04-25T04:12:38;101093.22;;;5.77;77.55
59104;BME280;51449;51.676;5.812;2023-04-25T04:15:02;101100.03;;;5.79;77.75
59104;BME280;51449;51.676;5.812;2023-04-25T04:17:25;101107.16;;;5.81;77.48
59104;BME280;51449;51.676;5.812;2023-04-25T04:19:47;101110.97;;;5.79;77.67
59104;BME280;51449;51.676;5.812;2023-04-25T04:22:12;101114.00;;;5.78;77.76
59104;BME280;51449;51.676;5.812;2023-04-25T04:24:34;101109.03;;;5.80;77.59
59104;BME280;51449;51.676;5.812;2023-04-25T04:27:00;101114.22;;;5.82;77.23
59104;BME280;51449;51.676;5.812;2023-04-25T04:29:51;101109.03;;;5.80;77.66
59104;BME280;51449;51.676;5.812;2023-04-25T04:32:25;101111.78;;;5.80;77.57
59104;BME280;51449;51.676;5.812;2023-04-25T04:34:48;101117.78;;;5.82;77.63
59104;BME280;51449;51.676;5.812;2023-04-25T04:37:11;101114.22;;;5.82;77.36
59104;BME280;51449;51.676;5.812;2023-04-25T04:39:36;101122.72;;;5.80;77.46
59104;BME280;51449;51.676;5.812;2023-04-25T04:42:18;101126.31;;;5.75;77.75
59104;BME280;51449;51.676;5.812;2023-04-25T04:44:52;101124.44;;;5.76;77.19
59104;BME280;51449;51.676;5.812;2023-04-25T04:47:28;101133.72;;;5.75;78.00
59104;BME280;51449;51.676;5.812;2023-04-25T04:50:12;101135.38;;;5.76;77.16
59104;BME280;51449;51.676;5.812;2023-04-25T04:52:53;101139.19;;;5.75;77.69
59104;BME280;51449;51.676;5.812;2023-04-25T04:55:42;101142.44;;;5.77;77.57
59104;BME280;51449;51.676;5.812;2023-04-25T04:58:22;101141.84;;;5.80;77.39
59104;BME280;51449;51.676;5.812;2023-04-25T05:01:00;101139.88;;;5.86;77.51
59104;BME280;51449;51.676;5.812;2023-04-25T05:03:40;101149.94;;;5.90;77.83
59104;BME280;51449;51.676;5.812;2023-04-25T05:06:27;101154.25;;;5.96;77.96
59104;BME280;51449;51.676;5.812;2023-04-25T05:09:09;101150.34;;;6.03;77.48
59104;BME280;51449;51.676;5.812;2023-04-25T05:11:54;101156.28;;;6.10;77.30
59104;BME280;51449;51.676;5.812;2023-04-25T05:14:37;101165.41;;;6.19;77.65
59104;BME280;51449;51.676;5.812;2023-04-25T05:17:06;101166.47;;;6.23;77.78
59104;BME280;51449;51.676;5.812;2023-04-25T05:19:50;101170.25;;;6.27;77.22
59104;BME280;51449;51.676;5.812;2023-04-25T05:22:32;101180.31;;;6.32;77.49
59104;BME280;51449;51.676;5.812;2023-04-25T05:25:04;101180.50;;;6.35;77.11
59104;BME280;51449;51.676;5.812;2023-04-25T05:27:47;101187.03;;;6.39;76.57
59104;BME280;51449;51.676;5.812;2023-04-25T05:30:27;101195.16;;;6.45;76.78
59104;BME280;51449;51.676;5.812;2023-04-25T05:33:03;101189.00;;;6.53;76.51
59104;BME280;51449;51.676;5.812;2023-04-25T05:35:25;101200.72;;;6.58;76.41
59104;BME280;51449;51.676;5.812;2023-04-25T05:37:46;101198.69;;;6.64;75.94
59104;BME280;51449;51.676;5.812;2023-04-25T05:40:09;101201.63;;;6.68;75.82
59104;BME280;51449;51.676;5.812;2023-04-25T05:42:50;101199.94;;;6.72;75.75
59104;BME280;51449;51.676;5.812;2023-04-25T05:45:21;101199.84;;;6.77;75.34
59104;BME280;51449;51.676;5.812;2023-04-25T05:47:58;101207.16;;;6.81;75.15
59104;BME280;51449;51.676;5.812;2023-04-25T05:50:45;101216.09;;;6.87;74.62
59104;BME280;51449;51.676;5.812;2023-04-25T05:53:19;101219.59;;;6.93;74.80
59104;BME280;51449;51.676;5.812;2023-04-25T05:55:47;101214.56;;;7.00;75.03
59104;BME280;51449;51.676;5.812;2023-04-25T05:58:15;101212.53;;;7.05;74.95
59104;BME280;51449;51.676;5.812;2023-04-25T06:00:37;101217.63;;;7.12;74.07
59104;BME280;51449;51.676;5.812;2023-04-25T06:02:59;101229.59;;;7.16;74.04
59104;BME280;51449;51.676;5.812;2023-04-25T06:05:23;101213.06;;;7.21;73.81
59104;BME280;51449;51.676;5.812;2023-04-25T06:07:45;101214.38;;;7.24;73.35
59104;BME280;51449;51.676;5.812;2023-04-25T06:10:08;101226.09;;;7.29;73.39
59104;BME280;51449;51.676;5.812;2023-04-25T06:12:32;101222.13;;;7.36;73.42
59104;BME280;51449;51.676;5.812;2023-04-25T06:14:54;101219.28;;;7.41;72.72
59104;BME280;51449;51.676;5.812;2023-04-25T06:17:16;101217.84;;;7.43;72.69
59104;BME280;51449;51.676;5.812;2023-04-25T06:19:38;101228.25;;;7.46;72.11
59104;BME280;51449;51.676;5.812;2023-04-25T06:22:01;101226.81;;;7.49;72.24
59104;BME280;51449;51.676;5.812;2023-04-25T06:24:25;101221.53;;;7.53;72.04
59104;BME280;51449;51.676;5.812;2023-04-25T06:26:47;101231.09;;;7.55;71.31
59104;BME280;51449;51.676;5.812;2023-04-25T06:29:09;101232.09;;;7.59;71.39
59104;BME280;51449;51.676;5.812;2023-04-25T06:31:31;101235.38;;;7.61;71.13
59104;BME280;51449;51.676;5.812;2023-04-25T06:33:55;101230.69;;;7.62;71.28
59104;BME280;51449;51.676;5.812;2023-04-25T06:36:19;101232.81;;;7.65;70.79
59104;BME280;51449;51.676;5.812;2023-04-25T06:38:53;101231.91;;;7.69;70.94
59104;BME280;51449;51.676;5.812;2023-04-25T06:41:16;101244.31;;;7.81;70.48
59104;BME280;51449;51.676;5.812;2023-04-25T06:43:38;101239.53;;;7.86;70.41
59104;BME280;51449;51.676;5.812;2023-04-25T06:46:20;101235.38;;;7.89;69.30
59104;BME280;51449;51.676;5.812;2023-04-25T06:48:43;101245.41;;;7.93;69.53
59104;BME280;51449;51.676;5.812;2023-04-25T06:51:05;101241.66;;;8.03;69.43
59104;BME280;51449;51.676;5.812;2023-04-25T06:53:29;101253.53;;;8.12;68.74
59104;BME280;51449;51.676;5.812;2023-04-25T06:55:54;101247.03;;;8.22;68.94
59104;BME280;51449;51.676;5.812;2023-04-25T06:58:17;101247.91;;;8.31;68.59
59104;BME280;51449;51.676;5.812;2023-04-25T07:00:57;101251.56;;;8.54;68.62
59104;BME280;51449;51.676;5.812;2023-04-25T07:03:20;101252.34;;;8.69;67.27
59104;BME280;51449;51.676;5.812;2023-04-25T07:05:44;101251.06;;;8.75;66.31
59104;BME280;51449;51.676;5.812;2023-04-25T07:08:07;101263.06;;;8.79;65.91
59104;BME280;51449;51.676;5.812;2023-04-25T07:10:29;101257.47;;;8.84;65.99
59104;BME280;51449;51.676;5.812;2023-04-25T07:12:52;101264.47;;;8.90;65.27
59104;BME280;51449;51.676;5.812;2023-04-25T07:15:14;101264.78;;;8.89;65.01
59104;BME280;51449;51.676;5.812;2023-04-25T07:17:39;101277.06;;;8.91;64.83
59104;BME280;51449;51.676;5.812;2023-04-25T07:20:01;101271.03;;;9.03;65.48
59104;BME280;51449;51.676;5.812;2023-04-25T07:22:25;101283.19;;;9.11;64.70
59104;BME280;51449;51.676;5.812;2023-04-25T07:24:48;101282.91;;;9.12;64.17
59104;BME280;51449;51.676;5.812;2023-04-25T07:27:13;101284.72;;;9.17;64.06
59104;BME280;51449;51.676;5.812;2023-04-25T07:29:49;101287.47;;;9.17;63.53
59104;BME280;51449;51.676;5.812;2023-04-25T07:32:11;101285.00;;;9.15;62.48
59104;BME280;51449;51.676;5.812;2023-04-25T07:34:36;101290.00;;;9.13;62.55
59104;BME280;51449;51.676;5.812;2023-04-25T07:37:00;101283.38;;;9.14;62.64
59104;BME280;51449;51.676;5.812;2023-04-25T07:39:28;101290.56;;;9.24;63.47
59104;BME280;51449;51.676;5.812;2023-04-25T07:41:51;101294.56;;;9.40;63.27
59104;BME280;51449;51.676;5.812;2023-04-25T07:44:18;101298.16;;;9.50;63.02
59104;BME280;51449;51.676;5.812;2023-04-25T07:46:41;101294.03;;;9.61;62.43
59104;BME280;51449;51.676;5.812;2023-04-25T07:49:03;101294.56;;;9.72;62.23
59104;BME280;51449;51.676;5.812;2023-04-25T07:51:25;101297.19;;;9.77;62.15
59104;BME280;51449;51.676;5.812;2023-04-25T07:53:49;101309.81;;;9.78;61.41
59104;BME280;51449;51.676;5.812;2023-04-25T07:56:12;101313.88;;;9.80;61.09
59104;BME280;51449;51.676;5.812;2023-04-25T07:58:37;101325.34;;;9.74;60.43
59104;BME280;51449;51.676;5.812;2023-04-25T08:01:02;101328.84;;;9.65;59.95
59104;BME280;51449;51.676;5.812;2023-04-25T08:03:40;101327.16;;;9.56;60.39
59104;BME280;51449;51.676;5.812;2023-04-25T08:06:09;101321.19;;;9.54;61.02
59104;BME280;51449;51.676;5.812;2023-04-25T08:08:42;101330.53;;;9.53;60.42
59104;BME280;51449;51.676;5.812;2023-04-25T08:11:07;101338.94;;;9.48;59.73
59104;BME280;51449;51.676;5.812;2023-04-25T08:13:30;101334.56;;;9.47;59.18
59104;BME280;51449;51.676;5.812;2023-04-25T08:15:53;101335.25;;;9.52;59.61
59104;BME280;51449;51.676;5.812;2023-04-25T08:18:15;101332.34;;;9.57;59.52
59104;BME280;51449;51.676;5.812;2023-04-25T08:20:40;101343.94;;;9.68;58.37
59104;BME280;51449;51.676;5.812;2023-04-25T08:23:04;101344.16;;;9.80;58.33
59104;BME280;51449;51.676;5.812;2023-04-25T08:25:47;101349.59;;;10.03;57.31
59104;BME280;51449;51.676;5.812;2023-04-25T08:28:12;101340.91;;;10.18;56.89
59104;BME280;51449;51.676;5.812;2023-04-25T08:30:34;101343.91;;;10.31;56.76
59104;BME280;51449;51.676;5.812;2023-04-25T08:32:56;101355.75;;;10.40;56.32
59104;BME280;51449;51.676;5.812;2023-04-25T08:35:39;101349.75;;;10.38;54.81
59104;BME280;51449;51.676;5.812;2023-04-25T08:38:02;101358.50;;;10.40;54.56
59104;BME280;51449;51.676;5.812;2023-04-25T08:40:26;101366.81;;;10.48;52.31
59104;BME280;51449;51.676;5.812;2023-04-25T08:42:57;101363.41;;;10.52;51.34
59104;BME280;51449;51.676;5.812;2023-04-25T08:45:20;101369.44;;;10.62;51.38
59104;BME280;51449;51.676;5.812;2023-04-25T08:47:45;101370.88;;;10.60;51.17
59104;BME280;51449;51.676;5.812;2023-04-25T08:50:10;101377.69;;;10.54;50.73
59104;BME280;51449;51.676;5.812;2023-04-25T08:52:41;101366.97;;;10.52;50.83
59104;BME280;51449;51.676;5.812;2023-04-25T08:55:08;101375.75;;;10.63;52.10
59104;BME280;51449;51.676;5.812;2023-04-25T08:57:33;101371.06;;;10.72;52.15
59104;BME280;51449;51.676;5.812;2023-04-25T08:59:57;101365.75;;;10.93;53.16
59104;BME280;51449;51.676;5.812;2023-04-25T09:02:20;101381.78;;;11.00;52.11
59104;BME280;51449;51.676;5.812;2023-04-25T09:04:44;101389.44;;;11.03;51.47
59104;BME280;51449;51.676;5.812;2023-04-25T09:07:07;101386.34;;;11.04;51.18
59104;BME280;51449;51.676;5.812;2023-04-25T09:09:29;101392.69;;;10.96;50.81
59104;BME280;51449;51.676;5.812;2023-04-25T09:11:54;101401.91;;;10.91;50.96
59104;BME280;51449;51.676;5.812;2023-04-25T09:14:20;101400.75;;;10.84;50.59
59104;BME280;51449;51.676;5.812;2023-04-25T09:17:05;101415.34;;;10.76;50.50
59104;BME280;51449;51.676;5.812;2023-04-25T09:20:05;101416.94;;;10.68;49.82
59104;BME280;51449;51.676;5.812;2023-04-25T09:22:32;101419.31;;;10.52;50.56
59104;BME280;51449;51.676;5.812;2023-04-25T09:25:04;101428.69;;;10.42;51.11
59104;BME280;51449;51.676;5.812;2023-04-25T09:27:31;101425.75;;;10.39;51.87
59104;BME280;51449;51.676;5.812;2023-04-25T09:30:03;101424.56;;;10.31;51.56
59104;BME280;51449;51.676;5.812;2023-04-25T09:32:43;101436.19;;;10.19;52.39
59104;BME280;51449;51.676;5.812;2023-04-25T09:35:06;101434.59;;;10.04;53.29
59104;BME280;51449;51.676;5.812;2023-04-25T09:37:30;101434.06;;;9.94;54.81
59104;BME280;51449;51.676;5.812;2023-04-25T09:40:11;101441.78;;;9.83;54.76
59104;BME280;51449;51.676;5.812;2023-04-25T09:42:46;101449.66;;;9.76;55.83
59104;BME280;51449;51.676;5.812;2023-04-25T09:45:12;101449.34;;;9.77;55.59
59104;BME280;51449;51.676;5.812;2023-04-25T09:47:39;101452.47;;;9.84;55.93
59104;BME280;51449;51.676;5.812;2023-04-25T09:50:03;101446.91;;;9.98;56.04
59104;BME280;51449;51.676;5.812;2023-04-25T09:52:34;101449.69;;;10.07;55.67
59104;BME280;51449;51.676;5.812;2023-04-25T09:55:07;101445.81;;;10.08;55.90
59104;BME280;51449;51.676;5.812;2023-04-25T09:57:30;101449.94;;;10.19;56.27
59104;BME280;51449;51.676;5.812;2023-04-25T09:59:55;101450.81;;;10.28;56.60
59104;BME280;51449;51.676;5.812;2023-04-25T10:02:26;101446.66;;;10.40;56.41
59104;BME280;51449;51.676;5.812;2023-04-25T10:05:02;101464.03;;;10.49;55.12
59104;BME280;51449;51.676;5.812;2023-04-25T10:07:33;101460.94;;;10.42;53.94
59104;BME280;51449;51.676;5.812;2023-04-25T10:10:08;101468.25;;;10.46;54.28
59104;BME280;51449;51.676;5.812;2023-04-25T10:12:45;101459.19;;;10.55;54.29
59104;BME280;51449;51.676;5.812;2023-04-25T10:15:14;101459.81;;;10.83;53.73
59104;BME280;51449;51.676;5.812;2023-04-25T10:17:40;101450.75;;;11.08;53.31
59104;BME280;51449;51.676;5.812;2023-04-25T10:20:08;101455.16;;;11.35;53.61
59104;BME280;51449;51.676;5.812;2023-04-25T10:22:33;101457.47;;;11.68;53.13
59104;BME280;51449;51.676;5.812;2023-04-25T10:25:07;101456.16;;;12.01;51.73
59104;BME280;51449;51.676;5.812;2023-04-25T10:27:33;101445.59;;;12.03;50.12
59104;BME280;51449;51.676;5.812;2023-04-25T10:30:06;101451.44;;;11.92;50.04
59104;BME280;51449;51.676;5.812;2023-04-25T10:32:35;101461.19;;;11.81;49.61
59104;BME280;51449;51.676;5.812;2023-04-25T10:34:57;101476.78;;;11.60;48.56
59104;BME280;51449;51.676;5.812;2023-04-25T10:37:26;101473.50;;;11.23;49.16
59104;BME280;51449;51.676;5.812;2023-04-25T10:39:47;101477.31;;;10.87;50.91
59104;BME280;51449;51.676;5.812;2023-04-25T10:42:09;101479.63;;;10.54;50.87
59104;BME280;51449;51.676;5.812;2023-04-25T10:44:31;101470.59;;;10.31;52.17
59104;BME280;51449;51.676;5.812;2023-04-25T10:46:57;101467.41;;;10.15;53.08
59104;BME280;51449;51.676;5.812;2023-04-25T10:49:34;101476.03;;;9.99;53.08
59104;BME280;51449;51.676;5.812;2023-04-25T10:57:40;101481.81;;;10.34;52.83
59104;BME280;51449;51.676;5.812;2023-04-25T11:00:17;101480.34;;;10.77;52.67
59104;BME280;51449;51.676;5.812;2023-04-25T11:02:49;101473.97;;;11.16;51.85
59104;BME280;51449;51.676;5.812;2023-04-25T11:05:22;101462.34;;;11.54;51.59
59104;BME280;51449;51.676;5.812;2023-04-25T11:07:56;101472.06;;;11.60;50.25
59104;BME280;51449;51.676;5.812;2023-04-25T11:10:30;101465.91;;;11.63;48.20
59104;BME280;51449;51.676;5.812;2023-04-25T11:12:56;101469.66;;;11.59;47.40
59104;BME280;51449;51.676;5.812;2023-04-25T11:15:23;101467.84;;;11.54;47.34
59104;BME280;51449;51.676;5.812;2023-04-25T11:17:51;101483.75;;;11.48;46.67
59104;BME280;51449;51.676;5.812;2023-04-25T11:20:14;101476.94;;;11.37;45.87
59104;BME280;51449;51.676;5.812;2023-04-25T11:22:38;101478.06;;;11.27;45.73
59104;BME280;51449;51.676;5.812;2023-04-25T11:25:06;101475.63;;;11.17;46.30
59104;BME280;51449;51.676;5.812;2023-04-25T11:27:29;101485.16;;;11.02;47.05
59104;BME280;51449;51.676;5.812;2023-04-25T11:29:51;101494.53;;;10.92;47.08
59104;BME280;51449;51.676;5.812;2023-04-25T11:32:15;101497.75;;;10.86;48.15
59104;BME280;51449;51.676;5.812;2023-04-25T11:34:43;101496.41;;;10.75;48.68
59104;BME280;51449;51.676;5.812;2023-04-25T11:37:06;101501.19;;;10.60;49.49
59104;BME280;51449;51.676;5.812;2023-04-25T11:39:30;101504.72;;;10.52;50.49
59104;BME280;51449;51.676;5.812;2023-04-25T11:41:53;101506.97;;;10.50;50.69
59104;BME280;51449;51.676;5.812;2023-04-25T11:44:16;101501.34;;;10.55;51.83
59104;BME280;51449;51.676;5.812;2023-04-25T11:46:39;101503.69;;;10.70;52.04
59104;BME280;51449;51.676;5.812;2023-04-25T11:49:01;101511.53;;;10.86;52.26
59104;BME280;51449;51.676;5.812;2023-04-25T11:51:24;101507.53;;;11.01;52.00
59104;BME280;51449;51.676;5.812;2023-04-25T11:53:47;101511.63;;;11.12;51.39
59104;BME280;51449;51.676;5.812;2023-04-25T11:56:10;101510.31;;;11.18;50.84
59104;BME280;51449;51.676;5.812;2023-04-25T11:58:54;101510.34;;;11.27;50.05
59104;BME280;51449;51.676;5.812;2023-04-25T12:03:52;101501.97;;;11.75;49.49
59104;BME280;51449;51.676;5.812;2023-04-25T12:06:17;101510.56;;;12.00;49.04
59104;BME280;51449;51.676;5.812;2023-04-25T12:08:58;101510.06;;;12.24;47.91
59104;BME280;51449;51.676;5.812;2023-04-25T12:11:31;101506.28;;;12.37;47.37
59104;BME280;51449;51.676;5.812;2023-04-25T12:13:54;101515.22;;;12.26;46.08
59104;BME280;51449;51.676;5.812;2023-04-25T12:16:16;101518.16;;;12.12;45.06
59104;BME280;51449;51.676;5.812;2023-04-25T12:18:38;101513.44;;;12.21;44.67
59104;BME280;51449;51.676;5.812;2023-04-25T12:21:02;101516.22;;;12.30;45.87
59104;BME280;51449;51.676;5.812;2023-04-25T12:23:26;101501.22;;;12.39;45.22
59104;BME280;51449;51.676;5.812;2023-04-25T12:25:49;101505.72;;;12.53;44.10
59104;BME280;51449;51.676;5.812;2023-04-25T12:28:22;101502.97;;;12.53;44.13
59104;BME280;51449;51.676;5.812;2023-04-25T12:33:14;101519.50;;;12.70;41.41
59104;BME280;51449;51.676;5.812;2023-04-25T12:35:36;101507.91;;;12.77;39.42
59104;BME280;51449;51.676;5.812;2023-04-25T12:37:58;101514.25;;;12.77;39.73
59104;BME280;51449;51.676;5.812;2023-04-25T12:40:20;101518.66;;;12.78;39.76
59104;BME280;51449;51.676;5.812;2023-04-25T12:42:42;101522.84;;;12.84;39.89
59104;BME280;51449;51.676;5.812;2023-04-25T12:45:04;101518.91;;;12.94;40.00
59104;BME280;51449;51.676;5.812;2023-04-25T12:47:27;101516.13;;;12.94;39.62
59104;BME280;51449;51.676;5.812;2023-04-25T12:49:49;101509.75;;;13.02;39.71
59104;BME280;51449;51.676;5.812;2023-04-25T12:52:11;101527.94;;;13.12;40.38
59104;BME280;51449;51.676;5.812;2023-04-25T12:54:32;101513.56;;;13.19;39.95
59104;BME280;51449;51.676;5.812;2023-04-25T12:56:54;101518.97;;;13.15;40.69
59104;BME280;51449;51.676;5.812;2023-04-25T12:59:17;101521.06;;;12.89;40.69
59104;BME280;51449;51.676;5.812;2023-04-25T13:01:39;101533.84;;;12.55;41.28
59104;BME280;51449;51.676;5.812;2023-04-25T13:04:01;101554.56;;;12.23;42.71